Time;durP1;ratioP1;P1;durP2;ratioP2;P2;SDS_P1;SDS_P2;PMS_P1;PMS_P2;Temp;Humidity;BMP_temperature;BMP_pressure;BME280_temperature;BME280_humidity;BME280_pressure;Samples;Min_cycle;Max_cycle;Signal;HPM_P1;HPM_P2
2023/12/28 00:00:39;;;;;;;0.90;0.60;;;;;;;9.69;100.00;100858.88;5098397;27;96780;-28
2023/12/28 00:03:05;;;;;;;0.95;0.63;;;;;;;9.76;100.00;100881.91;5097808;27;97892;-27
2023/12/28 00:05:30;;;;;;;0.95;0.80;;;;;;;9.76;100.00;100887.31;5097266;27;99023;-28
2023/12/28 00:07:58;;;;;;;1.25;0.30;;;;;;;9.79;100.00;100879.00;5097180;27;96522;-27
2023/12/28 00:10:25;;;;;;;2.05;0.77;;;;;;;9.76;100.00;100870.22;5097703;27;96782;-27
2023/12/28 00:12:50;;;;;;;0.82;0.50;;;;;;;9.74;100.00;100881.09;5078643;27;101538;-28
2023/12/28 00:15:15;;;;;;;0.65;0.50;;;;;;;9.75;100.00;100893.69;5097706;27;97147;-29
2023/12/28 00:17:41;;;;;;;1.35;0.73;;;;;;;9.75;100.00;100884.72;5097776;27;96421;-28
2023/12/28 00:20:07;;;;;;;0.25;0.25;;;;;;;9.71;100.00;100870.47;5097637;27;96829;-28
2023/12/28 00:22:32;;;;;;;1.35;0.77;;;;;;;9.75;100.00;100888.28;5096094;27;98932;-28
2023/12/28 00:24:57;;;;;;;0.57;0.32;;;;;;;9.72;100.00;100874.03;5097546;27;97865;-27
2023/12/28 00:27:22;;;;;;;1.65;0.60;;;;;;;9.73;100.00;100892.03;5097954;27;96533;-28
2023/12/28 00:29:48;;;;;;;0.65;0.65;;;;;;;9.72;100.00;100896.56;5097547;27;96865;-28
2023/12/28 00:32:13;;;;;;;0.77;0.50;;;;;;;9.75;100.00;100896.41;5096444;27;99287;-28
2023/12/28 00:34:39;;;;;;;0.50;0.50;;;;;;;9.74;100.00;100900.03;5097148;27;101146;-28
2023/12/28 00:37:05;;;;;;;0.75;0.65;;;;;;;9.71;100.00;100900.22;5096879;27;96663;-28
2023/12/28 00:39:30;;;;;;;0.30;0.25;;;;;;;9.70;100.00;100892.19;5097394;27;96752;-27
2023/12/28 00:41:55;;;;;;;0.73;0.52;;;;;;;9.71;100.00;100894.81;5097176;27;106229;-28
2023/12/28 00:44:21;;;;;;;0.50;0.38;;;;;;;9.74;100.00;100901.88;5096768;27;98805;-28
2023/12/28 00:46:46;;;;;;;1.23;0.47;;;;;;;9.73;100.00;100892.03;5097267;27;96827;-29
2023/12/28 00:49:11;;;;;;;1.10;0.85;;;;;;;9.70;100.00;100887.69;5097583;27;96833;-28
2023/12/28 00:51:37;;;;;;;1.70;0.77;;;;;;;9.70;100.00;100905.72;5096472;27;103434;-27
2023/12/28 00:54:02;;;;;;;2.45;0.55;;;;;;;9.73;100.00;100897.44;5097101;27;97776;-28
2023/12/28 00:56:27;;;;;;;0.30;0.30;;;;;;;9.68;100.00;100884.19;5096113;27;96786;-28
2023/12/28 00:58:53;;;;;;;1.15;0.60;;;;;;;9.69;100.00;100888.63;5078139;27;96812;-28
2023/12/28 01:01:18;;;;;;;2.20;0.90;;;;;;;9.74;100.00;100893.75;5096369;27;106678;-28
2023/12/28 01:03:43;;;;;;;0.70;0.52;;;;;;;9.76;100.00;100892.72;5096760;27;97844;-28
2023/12/28 01:06:08;;;;;;;0.90;0.43;;;;;;;9.75;100.00;100895.53;5096690;27;96548;-28
2023/12/28 01:08:34;;;;;;;1.38;0.93;;;;;;;9.72;100.00;100899.25;5097353;27;97015;-28
2023/12/28 01:11:00;;;;;;;1.35;0.90;;;;;;;9.73;100.00;100906.44;5096340;27;99754;-28
2023/12/28 01:13:27;;;;;;;0.85;0.30;;;;;;;9.72;100.00;100901.09;5078108;27;101011;-29
2023/12/28 01:15:52;;;;;;;1.10;0.65;;;;;;;9.69;100.00;100885.06;5078221;27;96864;-28
2023/12/28 01:18:18;;;;;;;1.10;0.70;;;;;;;9.74;100.00;100894.63;5096736;27;96817;-28
2023/12/28 01:20:44;;;;;;;1.23;0.60;;;;;;;9.73;100.00;100903.72;5095836;27;99279;-28
2023/12/28 01:23:09;;;;;;;0.73;0.68;;;;;;;9.69;100.00;100887.75;5096442;27;97296;-28
2023/12/28 01:25:35;;;;;;;1.15;0.57;;;;;;;9.73;100.00;100911.84;5096733;27;96687;-30
2023/12/28 01:28:01;;;;;;;1.48;0.90;;;;;;;9.67;100.00;100898.66;5096229;27;96823;-28
2023/12/28 01:30:26;;;;;;;1.20;0.95;;;;;;;9.68;100.00;100892.31;5096498;27;97884;-29
2023/12/28 01:32:51;;;;;;;0.85;0.55;;;;;;;9.71;100.00;100892.13;5096051;27;101127;-29
2023/12/28 01:35:17;;;;;;;1.85;1.08;;;;;;;9.69;100.00;100896.72;5095849;27;96502;-28
2023/12/28 01:37:42;;;;;;;0.77;0.60;;;;;;;9.71;100.00;100899.38;5096707;27;96706;-28
2023/12/28 01:40:09;;;;;;;0.43;0.30;;;;;;;9.67;100.00;100898.66;5095863;27;99463;-28
2023/12/28 01:42:35;;;;;;;1.35;0.93;;;;;;;9.70;100.00;100898.50;5077369;27;101241;-27
2023/12/28 01:45:00;;;;;;;1.83;0.65;;;;;;;9.67;100.00;100900.50;5095641;27;96560;-28
2023/12/28 01:47:26;;;;;;;1.83;0.95;;;;;;;9.69;100.00;100904.84;5096350;27;96758;-28
2023/12/28 01:49:53;;;;;;;0.55;0.45;;;;;;;9.68;100.00;100900.41;5077392;27;100867;-27
2023/12/28 01:52:18;;;;;;;1.45;0.77;;;;;;;9.65;100.00;100900.56;5076930;27;101114;-28
2023/12/28 01:54:44;;;;;;;0.60;0.47;;;;;;;9.66;100.00;100898.75;5077672;27;96680;-28
2023/12/28 01:57:10;;;;;;;2.90;1.15;;;;;;;9.62;100.00;100911.56;5095897;27;97184;-28
2023/12/28 01:59:36;;;;;;;0.35;0.35;;;;;;;9.66;100.00;100926.66;5095773;27;98033;-29
2023/12/28 02:02:02;;;;;;;2.28;0.70;;;;;;;9.65;100.00;100924.03;5096210;27;97285;-27
2023/12/28 02:04:28;;;;;;;0.88;0.52;;;;;;;9.66;100.00;100923.09;5077543;27;96561;-28
2023/12/28 02:07:00;;;;;;;6.85;0.47;;;;;;;9.64;100.00;100915.06;5077300;27;96817;-28
2023/12/28 02:09:25;;;;;;;0.80;0.43;;;;;;;9.63;100.00;100913.31;5076601;27;100908;-27
2023/12/28 02:11:52;;;;;;;1.08;0.65;;;;;;;9.66;100.00;100920.41;5095611;27;97761;-27
2023/12/28 02:14:18;;;;;;;1.10;0.68;;;;;;;9.66;100.00;100913.16;5077401;27;96764;-28
2023/12/28 02:16:59;;;;;;;1.85;0.80;;;;;;;9.67;100.00;100928.41;5077456;27;96955;-28
2023/12/28 02:19:50;;;;;;;1.83;1.15;;;;;;;9.72;100.00;100936.25;5077157;27;100875;-28
2023/12/28 02:22:16;;;;;;;1.48;0.57;;;;;;;9.60;100.00;100889.13;5080549;27;97808;-28
2023/12/28 02:24:56;;;;;;;1.35;0.90;;;;;;;9.69;100.00;100923.78;5077070;27;96554;-28
2023/12/28 02:27:22;;;;;;;1.45;0.77;;;;;;;9.63;100.00;100909.72;5096188;27;96808;-28
2023/12/28 02:29:47;;;;;;;2.55;1.00;;;;;;;9.61;100.00;100909.84;5095232;27;99429;-28
2023/12/28 02:32:15;;;;;;;0.43;0.43;;;;;;;9.60;100.00;100908.06;5095156;27;98658;-28
2023/12/28 02:34:44;;;;;;;2.20;0.85;;;;;;;9.66;100.00;100914.97;5076575;27;96761;-29
2023/12/28 02:37:15;;;;;;;2.10;0.90;;;;;;;9.72;100.00;100901.97;5076771;27;96932;-28
2023/12/28 02:39:42;;;;;;;1.23;0.73;;;;;;;9.79;100.00;100914.16;5076660;27;100640;-28
2023/12/28 02:42:08;;;;;;;1.23;0.50;;;;;;;9.74;100.00;100905.44;5094960;27;99241;-28
2023/12/28 02:44:33;;;;;;;0.75;0.32;;;;;;;9.76;100.00;100921.59;5095633;27;96571;-28
2023/12/28 02:46:58;;;;;;;3.28;0.52;;;;;;;9.71;100.00;100916.47;5098169;27;96769;-28
2023/12/28 02:49:23;;;;;;;5.82;0.73;;;;;;;9.74;100.00;100931.63;5098394;27;106626;-28
2023/12/28 02:51:49;;;;;;;0.70;0.52;;;;;;;9.68;100.00;100916.63;5099081;27;97288;-29
2023/12/28 02:54:14;;;;;;;3.03;0.52;;;;;;;9.72;100.00;100937.13;5099007;27;96646;-27
2023/12/28 02:56:41;;;;;;;2.38;0.75;;;;;;;9.70;100.00;100939.06;5098750;27;96746;-28
2023/12/28 02:59:06;;;;;;;0.40;0.30;;;;;;;9.68;100.00;100935.56;5062678;27;100856;-29
2023/12/28 03:01:31;;;;;;;0.85;0.60;;;;;;;9.65;100.00;100921.34;5098777;27;97831;-28
2023/12/28 03:03:56;;;;;;;1.40;0.70;;;;;;;9.65;100.00;100924.03;5098730;27;96875;-28
2023/12/28 03:06:22;;;;;;;1.45;0.60;;;;;;;9.65;100.00;100905.09;5098716;27;96811;-29
2023/12/28 03:08:47;;;;;;;0.43;0.30;;;;;;;9.68;100.00;100927.47;5098643;27;97960;-28
2023/12/28 03:11:12;;;;;;;2.53;0.55;;;;;;;9.67;100.00;100930.25;5098478;27;97762;-28
2023/12/28 03:13:38;;;;;;;0.60;0.40;;;;;;;9.67;100.00;100920.28;5098643;27;96761;-30
2023/12/28 03:16:03;;;;;;;0.75;0.50;;;;;;;9.58;100.00;100915.38;5098951;27;96852;-28
2023/12/28 03:18:29;;;;;;;0.93;0.38;;;;;;;9.65;100.00;100911.38;5098138;27;98052;-28
2023/12/28 03:20:54;;;;;;;0.85;0.47;;;;;;;9.66;100.00;100928.50;5098330;27;101868;-28
2023/12/28 03:23:20;;;;;;;0.57;0.28;;;;;;;9.64;100.00;100915.06;5098127;27;96587;-28
2023/12/28 03:25:45;;;;;;;1.70;0.28;;;;;;;9.58;100.00;100904.56;5098841;27;96830;-28
2023/12/28 03:28:10;;;;;;;0.75;0.45;;;;;;;9.55;100.00;100881.28;5098251;27;97603;-28
2023/12/28 03:30:36;;;;;;;3.25;0.90;;;;;;;9.53;100.00;100890.44;5097921;27;99260;-28
2023/12/28 03:33:01;;;;;;;1.05;0.43;;;;;;;9.60;100.00;100910.78;5097974;27;100245;-30
2023/12/28 03:35:26;;;;;;;0.52;0.40;;;;;;;9.54;100.00;100894.91;5098627;27;96743;-28
2023/12/28 03:37:51;;;;;;;0.38;0.30;;;;;;;9.53;100.00;100893.16;5097683;27;99265;-28
2023/12/28 03:40:17;;;;;;;3.80;1.08;;;;;;;9.55;100.00;100888.53;5098614;27;97529;-28
2023/12/28 03:42:44;;;;;;;0.25;0.20;;;;;;;9.45;100.00;100882.78;5098596;27;96459;-28
2023/12/28 03:45:09;;;;;;;2.08;0.90;;;;;;;9.54;100.00;100894.91;5098012;27;97171;-28
2023/12/28 03:47:35;;;;;;;0.28;0.28;;;;;;;9.55;100.00;100884.00;5096857;27;99357;-27
2023/12/28 03:50:00;;;;;;;0.40;0.30;;;;;;;9.52;100.00;100889.59;5097613;27;99787;-28
2023/12/28 03:52:26;;;;;;;2.47;0.88;;;;;;;9.52;100.00;100891.41;5098135;27;96477;-29
2023/12/28 03:54:51;;;;;;;0.35;0.32;;;;;;;9.54;100.00;100882.25;5079640;27;96843;-28
2023/12/28 03:57:17;;;;;;;0.45;0.30;;;;;;;9.53;100.00;100860.69;5097074;27;103062;-29
2023/12/28 03:59:42;;;;;;;1.20;0.52;;;;;;;9.54;100.00;100887.66;5097781;27;97769;-28
2023/12/28 04:02:07;;;;;;;0.38;0.30;;;;;;;9.58;100.00;100885.66;5097745;27;96598;-29
2023/12/28 04:04:32;;;;;;;2.30;0.60;;;;;;;9.60;100.00;100875.63;5098108;27;96913;-28
2023/12/28 04:06:58;;;;;;;2.90;0.38;;;;;;;9.62;100.00;100891.78;5097425;27;98895;-29
2023/12/28 04:09:23;;;;;;;1.30;0.52;;;;;;;9.62;100.00;100905.28;5097719;27;100776;-28
2023/12/28 04:11:48;;;;;;;0.20;0.20;;;;;;;9.65;100.00;100903.28;5097320;27;99109;-28
2023/12/28 04:14:14;;;;;;;0.60;0.40;;;;;;;9.67;100.00;100903.19;5097734;27;96752;-28
2023/12/28 04:16:39;;;;;;;0.73;0.50;;;;;;;9.69;100.00;100904.84;5097289;27;103417;-28
2023/12/28 04:19:04;;;;;;;6.15;1.13;;;;;;;9.72;100.00;100896.56;5097369;27;97763;-29
2023/12/28 04:21:30;;;;;;;0.20;0.20;;;;;;;9.76;100.00;100881.03;5097811;27;96618;-28
2023/12/28 04:23:55;;;;;;;1.02;0.47;;;;;;;9.77;100.00;100894.47;5097876;27;96774;-28
2023/12/28 04:26:20;;;;;;;2.28;0.82;;;;;;;9.78;100.00;100879.13;5097235;27;97603;-28
2023/12/28 04:28:46;;;;;;;1.90;0.60;;;;;;;9.79;100.00;100876.31;5097611;27;97779;-29
2023/12/28 04:31:11;;;;;;;0.45;0.28;;;;;;;9.86;100.00;100878.66;5097483;27;96545;-28
2023/12/28 04:33:36;;;;;;;1.30;0.38;;;;;;;9.85;100.00;100877.78;5097469;27;96774;-28
2023/12/28 04:36:05;;;;;;;0.28;0.13;;;;;;;9.87;100.00;100880.44;5096379;27;99776;-28
2023/12/28 04:38:31;;;;;;;2.58;0.30;;;;;;;9.90;100.00;100891.94;5078119;27;101145;-28
2023/12/28 04:40:57;;;;;;;1.70;0.50;;;;;;;9.92;100.00;100891.84;5097244;27;96522;-28
2023/12/28 04:43:23;;;;;;;2.72;0.45;;;;;;;9.94;100.00;100879.09;5078677;27;96721;-29
2023/12/28 04:45:49;;;;;;;2.50;0.28;;;;;;;9.98;100.00;100883.34;5096608;27;99434;-28
2023/12/28 04:48:15;;;;;;;0.35;0.25;;;;;;;10.00;100.00;100890.41;5078180;27;101147;-29
2023/12/28 04:50:40;;;;;;;0.80;0.43;;;;;;;9.98;100.00;100903.16;5097108;27;96616;-29
2023/12/28 04:53:05;;;;;;;1.25;0.52;;;;;;;10.00;100.00;100892.25;5097721;27;96868;-28
2023/12/28 04:55:31;;;;;;;4.28;0.63;;;;;;;10.02;100.00;100921.94;5096619;27;98364;-28
2023/12/28 04:57:56;;;;;;;1.10;0.60;;;;;;;10.04;100.00;100910.06;5096243;27;99684;-28
2023/12/28 05:00:24;;;;;;;0.20;0.15;;;;;;;10.04;100.00;100911.91;5096587;27;96485;-29
2023/12/28 05:02:49;;;;;;;1.48;0.52;;;;;;;10.02;100.00;100898.47;5096910;27;98104;-27
2023/12/28 05:05:15;;;;;;;2.00;0.50;;;;;;;10.06;100.00;100901.84;5077749;27;104133;-27
2023/12/28 05:07:40;;;;;;;1.73;0.57;;;;;;;10.07;100.00;100900.91;5096481;27;99035;-28
2023/12/28 05:10:06;;;;;;;1.52;0.43;;;;;;;10.07;100.00;100909.88;5095970;27;96677;-27
2023/12/28 05:12:31;;;;;;;5.25;1.05;;;;;;;10.04;100.00;100914.63;5096922;27;96809;-27
2023/12/28 05:14:57;;;;;;;1.08;0.52;;;;;;;9.97;100.00;100897.84;5096800;27;97432;-28
2023/12/28 05:17:22;;;;;;;2.65;0.40;;;;;;;10.06;100.00;100921.69;5096976;27;97832;-28
2023/12/28 05:19:47;;;;;;;1.20;0.60;;;;;;;10.07;100.00;100915.28;5097051;27;96533;-28
2023/12/28 05:22:13;;;;;;;0.13;0.10;;;;;;;10.07;100.00;100909.88;5096979;27;96848;-29
2023/12/28 05:24:38;;;;;;;0.60;0.30;;;;;;;10.03;100.00;100897.47;5095973;27;98218;-27
2023/12/28 05:27:03;;;;;;;0.75;0.13;;;;;;;10.07;100.00;100923.41;5095812;27;107970;-28
2023/12/28 05:29:29;;;;;;;5.93;0.73;;;;;;;10.05;100.00;100917.22;5096817;27;96659;-28
2023/12/28 05:31:54;;;;;;;7.63;0.77;;;;;;;10.10;100.00;100915.09;5096229;27;96841;-28
2023/12/28 05:34:19;;;;;;;1.58;0.35;;;;;;;10.07;100.00;100922.53;5096007;27;105940;-28
2023/12/28 05:36:47;;;;;;;1.60;0.60;;;;;;;10.10;100.00;100928.63;5096211;27;100272;-28
2023/12/28 05:39:13;;;;;;;3.75;0.38;;;;;;;10.13;100.00;100916.75;5077561;27;96688;-28
2023/12/28 05:41:39;;;;;;;1.25;0.60;;;;;;;10.05;100.00;100917.22;5096734;27;96871;-29
2023/12/28 05:44:05;;;;;;;0.82;0.20;;;;;;;10.09;100.00;100909.81;5077749;27;101352;-28
2023/12/28 05:46:30;;;;;;;1.45;0.80;;;;;;;10.06;100.00;100904.53;5095856;27;97336;-28
2023/12/28 05:48:55;;;;;;;0.15;0.10;;;;;;;10.11;100.00;100914.16;5095851;27;96614;-29
2023/12/28 05:51:21;;;;;;;2.03;0.55;;;;;;;10.14;100.00;100930.22;5096139;27;96853;-28
2023/12/28 05:53:46;;;;;;;4.53;1.20;;;;;;;10.10;100.00;100915.09;5095680;27;99442;-28
2023/12/28 05:56:12;;;;;;;1.25;0.75;;;;;;;10.13;100.00;100928.47;5095724;27;99140;-28
2023/12/28 05:58:38;;;;;;;2.10;0.50;;;;;;;10.14;99.63;100934.75;5095911;27;96550;-28
2023/12/28 06:01:04;;;;;;;11.57;0.85;;;;;;;10.13;99.80;100935.69;5095788;27;96879;-28
2023/12/28 06:03:30;;;;;;;0.70;0.30;;;;;;;10.12;99.50;100937.53;5077078;27;100915;-28
2023/12/28 06:05:56;;;;;;;3.13;1.08;;;;;;;10.15;100.00;100950.03;5077346;27;100942;-28
2023/12/28 06:08:21;;;;;;;3.47;0.47;;;;;;;10.12;99.65;100933.97;5077481;27;96578;-28
2023/12/28 06:10:46;;;;;;;1.90;0.35;;;;;;;10.14;99.64;100949.16;5096196;27;96919;-28
2023/12/28 06:13:12;;;;;;;2.67;0.65;;;;;;;10.14;100.00;100946.44;5095018;27;103979;-27
2023/12/28 06:15:37;;;;;;;2.40;0.90;;;;;;;10.13;99.20;100950.13;5095495;27;98341;-27
2023/12/28 06:18:04;;;;;;;3.83;0.95;;;;;;;10.14;99.47;100953.72;5095893;27;96653;-28
2023/12/28 06:20:29;;;;;;;2.42;0.60;;;;;;;10.13;99.29;100960.97;5078985;27;96834;-28
2023/12/28 06:22:55;;;;;;;1.08;0.40;;;;;;;10.15;98.95;100959.03;5099314;27;97420;-28
2023/12/28 06:25:20;;;;;;;1.08;0.43;;;;;;;10.12;99.02;100942.97;5099397;27;97375;-29
2023/12/28 06:27:45;;;;;;;0.38;0.17;;;;;;;10.12;97.96;100959.19;5099653;27;96467;-28
2023/12/28 06:30:11;;;;;;;2.65;0.30;;;;;;;10.16;98.46;100960.78;5099744;27;96826;-29
2023/12/28 06:32:36;;;;;;;2.53;0.82;;;;;;;10.16;98.42;100963.47;5099085;27;99006;-28
2023/12/28 06:35:02;;;;;;;0.52;0.30;;;;;;;10.10;98.37;100947.59;5099269;27;98381;-28
2023/12/28 06:37:27;;;;;;;2.13;0.98;;;;;;;10.10;98.20;100944.00;5098514;27;96688;-28
2023/12/28 06:39:52;;;;;;;3.30;1.10;;;;;;;10.07;97.80;100945.06;5099550;27;96814;-28
2023/12/28 06:42:18;;;;;;;0.70;0.20;;;;;;;10.11;98.24;100946.63;5098969;27;97995;-28
2023/12/28 06:44:43;;;;;;;1.45;0.55;;;;;;;10.04;98.37;100956.06;5098724;27;101116;-28
2023/12/28 06:47:08;;;;;;;1.17;0.63;;;;;;;10.00;98.76;100970.72;5099111;27;96592;-29
2023/12/28 06:49:34;;;;;;;2.42;0.47;;;;;;;9.98;98.77;100951.00;5099204;27;96919;-28
2023/12/28 06:51:59;;;;;;;1.30;0.22;;;;;;;9.96;98.50;100961.94;5098766;27;97933;-28
2023/12/28 06:54:24;;;;;;;1.20;0.45;;;;;;;9.96;98.38;100961.94;5099346;27;97369;-29
2023/12/28 06:56:51;;;;;;;4.82;0.68;;;;;;;9.94;98.12;100966.56;5098874;27;97989;-28
2023/12/28 06:59:16;;;;;;;0.98;0.17;;;;;;;9.86;98.29;100963.41;5098586;27;98283;-29
2023/12/28 07:01:44;;;;;;;3.90;0.40;;;;;;;9.87;98.75;100985.94;5098298;27;97975;-30
2023/12/28 07:04:09;;;;;;;1.17;0.38;;;;;;;9.89;98.59;100989.41;5098560;27;99193;-28
2023/12/28 07:06:34;;;;;;;0.73;0.22;;;;;;;9.88;98.85;100980.41;5098850;27;96677;-28
2023/12/28 07:08:59;;;;;;;4.90;0.50;;;;;;;9.88;98.85;101001.19;5099096;27;96800;-28
2023/12/28 07:11:26;;;;;;;2.05;0.93;;;;;;;9.87;99.01;100996.75;5098330;27;102809;-28
2023/12/28 07:13:52;;;;;;;2.00;0.40;;;;;;;9.90;99.02;100999.28;5079500;27;100848;-28
2023/12/28 07:16:17;;;;;;;1.38;0.35;;;;;;;9.89;98.66;100994.81;5099210;27;96548;-28
2023/12/28 07:18:42;;;;;;;2.00;0.63;;;;;;;9.89;98.88;100992.09;5099301;27;96875;-29
2023/12/28 07:21:11;;;;;;;1.38;0.17;;;;;;;9.89;98.70;101000.22;5098468;27;98153;-28
2023/12/28 07:23:37;;;;;;;4.97;1.35;;;;;;;9.85;98.71;100993.25;5079637;27;98956;-28
2023/12/28 07:26:03;;;;;;;2.17;0.40;;;;;;;9.90;98.79;101002.00;5079469;27;96606;-28
2023/12/28 07:28:28;;;;;;;0.30;0.20;;;;;;;9.90;98.78;100996.56;5079665;27;96832;-28
2023/12/28 07:30:54;;;;;;;5.10;1.08;;;;;;;9.91;99.14;100998.31;5097906;27;99290;-29
2023/12/28 07:33:19;;;;;;;0.85;0.30;;;;;;;9.96;98.55;101007.03;5097841;27;97281;-28
2023/12/28 07:35:45;;;;;;;0.95;0.63;;;;;;;9.94;98.75;101014.41;5098536;27;96709;-28
2023/12/28 07:38:10;;;;;;;2.65;0.50;;;;;;;9.93;98.80;101012.63;5098034;27;96838;-28
2023/12/28 07:40:35;;;;;;;0.93;0.45;;;;;;;9.94;98.92;101012.56;5098319;27;97919;-28
2023/12/28 07:43:01;;;;;;;2.25;0.93;;;;;;;9.95;99.04;101026.94;5097913;27;99556;-28
2023/12/28 07:45:26;;;;;;;2.67;0.70;;;;;;;9.99;98.77;101017.72;5079892;27;96591;-28
2023/12/28 07:47:52;;;;;;;2.75;0.77;;;;;;;9.94;98.67;101019.81;5098372;27;96792;-28
2023/12/28 07:50:17;;;;;;;2.42;0.52;;;;;;;9.98;98.71;101019.53;5097551;27;97350;-29
2023/12/28 07:52:43;;;;;;;2.20;0.43;;;;;;;9.98;98.87;101027.63;5079147;27;100478;-28
2023/12/28 07:55:09;;;;;;;8.48;0.75;;;;;;;9.94;98.44;101017.09;5098160;27;96510;-28
2023/12/28 07:57:35;;;;;;;2.17;0.30;;;;;;;9.99;98.95;101039.38;5079128;27;96916;-28
2023/12/28 08:00:01;;;;;;;4.95;0.20;;;;;;;9.97;98.89;101033.16;5079026;27;101462;-28
2023/12/28 08:02:27;;;;;;;2.08;0.65;;;;;;;9.97;98.83;101034.03;5079033;27;100872;-28
2023/12/28 08:04:52;;;;;;;1.88;0.52;;;;;;;9.94;98.75;101027.94;5079220;27;96583;-28
2023/12/28 08:07:18;;;;;;;4.10;0.47;;;;;;;9.98;99.11;101038.47;5098443;27;96753;-28
2023/12/28 08:09:43;;;;;;;0.75;0.40;;;;;;;9.96;99.15;101044.91;5097375;27;99606;-29
2023/12/28 08:12:08;;;;;;;0.50;0.32;;;;;;;9.97;99.25;101030.44;5097564;27;101203;-29
2023/12/28 08:14:34;;;;;;;1.63;0.28;;;;;;;9.91;98.93;101045.19;5097301;27;96461;-29
2023/12/28 08:16:59;;;;;;;5.45;0.47;;;;;;;9.96;99.17;101053.94;5097983;27;96759;-27
2023/12/28 08:19:24;;;;;;;3.28;0.50;;;;;;;9.96;99.12;101047.63;5097658;27;102750;-28
2023/12/28 08:21:50;;;;;;;1.95;0.32;;;;;;;9.94;99.37;101046.88;5097345;27;97754;-28
2023/12/28 08:24:16;;;;;;;4.70;0.93;;;;;;;10.00;98.74;101057.34;5097589;27;96458;-28
2023/12/28 08:26:41;;;;;;;0.50;0.28;;;;;;;9.97;98.85;101044.84;5097386;27;96795;-28
2023/12/28 08:29:07;;;;;;;3.80;1.00;;;;;;;9.99;98.81;101044.78;5097107;27;99720;-28
2023/12/28 08:31:32;;;;;;;0.63;0.28;;;;;;;10.02;98.70;101047.31;5097205;27;99627;-27
2023/12/28 08:33:58;;;;;;;2.45;0.40;;;;;;;10.08;98.75;101054.19;5097562;27;96480;-28
2023/12/28 08:36:23;;;;;;;1.88;0.60;;;;;;;9.99;98.81;101037.53;5097285;27;96812;-29
2023/12/28 08:38:48;;;;;;;2.70;0.75;;;;;;;10.03;98.62;101051.75;5096409;27;97428;-28
2023/12/28 08:41:21;;;;;;;0.90;0.45;;;;;;;10.04;98.95;101050.78;5097138;27;102170;-28
2023/12/28 08:43:47;;;;;;;2.20;0.52;;;;;;;10.00;98.83;101043.81;5077652;27;96610;-30
2023/12/28 08:46:14;;;;;;;6.25;1.02;;;;;;;10.05;98.30;101062.50;5078720;27;96889;-28
2023/12/28 08:48:40;;;;;;;2.65;0.90;;;;;;;10.03;98.42;101045.47;5097364;27;97409;-28
2023/12/28 08:51:05;;;;;;;2.65;0.38;;;;;;;10.07;98.50;101050.63;5096644;27;97327;-28
2023/12/28 08:53:30;;;;;;;0.85;0.30;;;;;;;10.02;98.03;101052.72;5097255;27;96567;-28
2023/12/28 08:55:56;;;;;;;3.30;0.45;;;;;;;10.09;98.71;101064.06;5097451;27;96846;-28
2023/12/28 08:58:21;;;;;;;1.55;0.38;;;;;;;10.08;98.75;101065.00;5077813;27;101696;-27
2023/12/28 09:00:48;;;;;;;0.70;0.30;;;;;;;10.06;98.28;101062.41;5096643;27;106275;-27
2023/12/28 09:03:14;;;;;;;0.65;0.45;;;;;;;10.08;98.42;101060.50;5077963;27;96567;-28
2023/12/28 09:05:39;;;;;;;2.15;0.17;;;;;;;10.12;98.13;101061.19;5096912;27;96854;-28
2023/12/28 09:08:05;;;;;;;0.30;0.10;;;;;;;10.11;97.89;101046.78;5096670;27;97867;-28
2023/12/28 09:10:31;;;;;;;2.20;0.68;;;;;;;10.17;97.86;101065.38;5096441;27;99194;-29
2023/12/28 09:12:56;;;;;;;1.90;0.50;;;;;;;10.16;97.91;101068.19;5096878;27;96607;-28
2023/12/28 09:15:21;;;;;;;1.25;0.50;;;;;;;10.17;97.46;101076.19;5096934;27;96798;-28
2023/12/28 09:17:46;;;;;;;7.85;0.73;;;;;;;10.21;97.65;101063.38;5096565;27;98402;-28
2023/12/28 09:20:12;;;;;;;4.95;0.47;;;;;;;10.23;97.57;101060.59;5096972;27;97437;-28
2023/12/28 09:22:37;;;;;;;4.60;1.05;;;;;;;10.21;97.09;101064.25;5096858;27;96627;-28
2023/12/28 09:25:03;;;;;;;3.20;0.30;;;;;;;10.24;97.03;101068.59;5096683;27;96736;-28
2023/12/28 09:27:29;;;;;;;1.23;0.30;;;;;;;10.29;97.44;101077.38;5077178;27;100795;-28
2023/12/28 09:29:54;;;;;;;6.75;0.82;;;;;;;10.28;97.38;101078.34;5096345;27;97777;-29
2023/12/28 09:32:19;;;;;;;6.85;0.60;;;;;;;10.25;97.18;101083.91;5096644;27;96639;-28
2023/12/28 09:34:45;;;;;;;3.47;0.65;;;;;;;10.31;97.57;101093.53;5096404;27;96860;-28
2023/12/28 09:37:10;;;;;;;3.08;0.65;;;;;;;10.30;97.16;101089.09;5096303;27;97359;-28
2023/12/28 09:39:35;;;;;;;0.93;0.55;;;;;;;10.28;96.87;101082.88;5095879;27;99941;-27
2023/12/28 09:42:17;;;;;;;3.35;0.82;;;;;;;10.35;97.11;101092.41;5096238;27;96576;-28
2023/12/28 09:44:43;;;;;;;3.97;0.67;;;;;;;10.31;97.13;101089.00;5097070;27;96851;-28
2023/12/28 09:47:12;;;;;;;3.03;0.73;;;;;;;10.38;96.62;101106.63;5095778;27;99189;-28
2023/12/28 09:49:39;;;;;;;0.90;0.28;;;;;;;10.42;96.54;101112.78;5077419;27;100976;-28
2023/12/28 09:52:06;;;;;;;1.33;0.43;;;;;;;10.40;96.47;101112.84;5076506;27;96756;-28
2023/12/28 09:54:31;;;;;;;5.88;0.40;;;;;;;10.47;96.59;101110.66;5077306;27;96804;-28
2023/12/28 09:56:57;;;;;;;2.75;0.95;;;;;;;10.49;96.74;101116.00;5095403;27;99294;-28
2023/12/28 09:59:24;;;;;;;2.97;0.40;;;;;;;10.44;96.46;101116.28;5077196;27;100550;-28
2023/12/28 10:01:49;;;;;;;6.50;1.08;;;;;;;10.43;96.45;101125.34;5077553;27;96582;-28
2023/12/28 10:04:16;;;;;;;2.83;0.47;;;;;;;10.53;96.56;101122.97;5077566;27;96933;-28
2023/12/28 10:06:41;;;;;;;0.77;0.43;;;;;;;10.51;95.71;101138.44;5076990;27;100828;-28
2023/12/28 10:09:07;;;;;;;0.77;0.25;;;;;;;10.52;95.82;101135.66;5077467;27;98601;-29
2023/12/28 10:11:33;;;;;;;4.75;0.35;;;;;;;10.54;95.54;101132.88;5077410;27;96520;-28
2023/12/28 10:13:59;;;;;;;1.80;0.68;;;;;;;10.57;95.49;101135.41;5096228;27;96744;-28
2023/12/28 10:16:24;;;;;;;7.75;0.75;;;;;;;10.56;95.59;101137.22;5076502;27;100834;-28
2023/12/28 10:18:49;;;;;;;2.03;0.73;;;;;;;10.56;95.90;101139.94;5095778;27;97795;-28
2023/12/28 10:21:15;;;;;;;4.03;0.70;;;;;;;10.53;95.45;101139.22;5095910;27;96598;-28
2023/12/28 10:23:40;;;;;;;1.30;0.52;;;;;;;10.58;95.87;101129.91;5096057;27;96783;-29
2023/12/28 10:26:06;;;;;;;0.90;0.17;;;;;;;10.56;95.39;101139.94;5076759;27;101012;-27
2023/12/28 10:28:37;;;;;;;3.45;0.60;;;;;;;10.60;95.08;101138.78;5095346;27;99201;-28
2023/12/28 10:31:02;;;;;;;4.78;0.55;;;;;;;10.56;95.43;101145.34;5095836;27;96757;-27
2023/12/28 10:33:27;;;;;;;3.35;0.55;;;;;;;10.59;95.67;101136.19;5096212;27;96857;-29
2023/12/28 10:35:57;;;;;;;0.52;0.50;;;;;;;10.53;95.50;101114.84;5095200;27;97414;-29
2023/12/28 10:38:27;;;;;;;6.35;0.35;;;;;;;10.56;95.48;101129.09;5076730;27;99344;-28
2023/12/28 10:40:52;;;;;;;2.55;0.57;;;;;;;10.57;95.06;101129.97;5095182;27;96561;-28
2023/12/28 10:43:23;;;;;;;6.50;0.57;;;;;;;10.61;94.99;101121.59;5095737;27;96543;-28
2023/12/28 10:45:52;;;;;;;4.90;0.70;;;;;;;10.60;95.60;101106.28;5076590;27;100999;-28
2023/12/28 10:48:26;;;;;;;4.75;0.73;;;;;;;10.61;95.66;101134.25;5076490;27;101036;-28
2023/12/28 10:50:52;;;;;;;5.40;0.43;;;;;;;10.59;95.47;101136.19;5076918;27;96775;-28
2023/12/28 10:53:17;;;;;;;10.70;1.30;;;;;;;10.56;95.24;101128.25;5076920;27;96836;-28
2023/12/28 10:56:13;;;;;;;4.70;0.70;;;;;;;10.58;95.53;101140.72;5095405;27;98032;-28
2023/12/28 10:58:57;;;;;;;5.07;0.77;;;;;;;10.55;95.43;101131.91;5055625;27;97534;-28
2023/12/28 11:01:27;;;;;;;6.80;1.58;;;;;;;10.53;96.01;101129.25;5095517;27;96663;-28
2023/12/28 11:04:23;;;;;;;0.43;0.20;;;;;;;10.52;95.76;101130.22;5059727;27;96776;-28
2023/12/28 11:06:49;;;;;;;1.88;0.55;;;;;;;10.52;95.94;101129.38;5094236;27;99405;-28
2023/12/28 11:09:17;;;;;;;3.15;0.57;;;;;;;10.51;95.97;101123.09;5079637;27;100929;-27
2023/12/28 11:11:43;;;;;;;3.47;0.57;;;;;;;10.48;95.86;101117.81;5098843;27;96647;-28
2023/12/28 11:14:09;;;;;;;1.77;0.73;;;;;;;10.55;95.98;101126.47;5098757;27;96824;-29
2023/12/28 11:16:34;;;;;;;7.43;1.50;;;;;;;10.50;96.00;101112.31;5098509;27;97986;-28
2023/12/28 11:19:01;;;;;;;1.13;0.47;;;;;;;10.51;95.39;101106.84;5098096;27;97181;-31